MGPB

Puerto Barrios Airport

Airport
ICAO code
MGPB
IATA Code
PBR
Summary
ICAO Region
CARSAM
ICAO Territory
Location

Esperanza, Izabel Department

Serving
Puerto Barrios
Elevation
33 ft
Coordinates
15° 43' 54" N , 88° 35' 5" W
KCC
Af
Metar
Observation
MGPB 110600Z 00000KT 9999 TS SCT018 FEW025CB SCT090 25/25 Q1014 A2994 CB/TS/LTNG NNE
Station
Puerto Barrios
Date/Time
2022-08-11 06:00:00
Wind direction
Wind speed
00 kts
Lowest cloud amount
scattered clouds
Temperature
25°C
Dew point
25°C
Humidity
100%
QNH
1014 hPa
Weather condition
thunderstorm

Puerto Barrios Airport (formerly Base Aérea de Izabal) serves the city of Puerto Barrios, the port of Santo Tomás de Castilla and the Guatemalan Caribbean.

Climatology

Tropical rainforest climate (Köppen climate classification Af)

Runways

Designator Length Width Surface Rops
12/30 2707 34 CON No/No

Airport map

Aerial View

SKYbrary Partners:

Safety knowledge contributed by: